Time;durP1;ratioP1;P1;durP2;ratioP2;P2;SDS_P1;SDS_P2;PMS_P1;PMS_P2;Temp;Humidity;BMP_temperature;BMP_pressure;BME280_temperature;BME280_humidity;BME280_pressure;Samples;Min_cycle;Max_cycle;Signal;HPM_P1;HPM_P2
2022/05/02 00:00:56;;;;;;;6.90;3.40;;;;;;;8.73;56.73;100027.45;109217;1276;22440;-64
2022/05/02 00:03:24;;;;;;;4.10;2.70;;;;;;;8.70;56.15;100026.38;109249;1276;23197;-64
2022/05/02 00:05:55;;;;;;;5.20;3.30;;;;;;;8.70;55.93;100024.08;109134;1276;138805;-64
2022/05/02 00:08:23;;;;;;;5.10;3.10;;;;;;;8.68;55.26;100025.89;109264;1276;22451;-64
2022/05/02 00:10:51;;;;;;;7.10;3.70;;;;;;;8.68;54.80;100024.72;109114;1276;139078;-65
2022/05/02 00:13:19;;;;;;;5.10;3.00;;;;;;;8.67;54.50;100020.09;109214;1276;22621;-65
2022/05/02 00:15:48;;;;;;;6.40;3.00;;;;;;;8.68;54.23;100019.53;109284;1276;22417;-64
2022/05/02 00:18:17;;;;;;;6.20;2.70;;;;;;;8.70;53.98;100021.47;109097;1276;138733;-64
2022/05/02 00:20:45;;;;;;;4.40;2.70;;;;;;;8.72;53.83;100020.78;109191;1277;22400;-64
2022/05/02 00:23:13;;;;;;;4.60;2.90;;;;;;;8.72;53.22;100014.27;109154;1275;138871;-64
2022/05/02 00:25:42;;;;;;;8.30;3.00;;;;;;;8.77;53.07;100018.95;109183;1276;22410;-64
2022/05/02 00:28:13;;;;;;;4.60;3.00;;;;;;;8.79;52.97;100020.05;109136;1276;137898;-64
2022/05/02 00:30:42;;;;;;;8.00;3.50;;;;;;;8.81;52.89;100017.84;109217;1276;22419;-64
2022/05/02 00:33:12;;;;;;;6.80;2.90;;;;;;;8.82;52.89;100016.13;109145;1276;22481;-64
2022/05/02 00:35:40;;;;;;;4.20;2.30;;;;;;;8.84;52.85;100014.60;109125;1275;137036;-64
2022/05/02 00:38:11;;;;;;;7.50;3.00;;;;;;;8.86;52.65;100010.80;109226;1276;22448;-65
2022/05/02 00:40:39;;;;;;;4.60;2.90;;;;;;;8.89;52.09;100013.23;109114;1276;137420;-64
2022/05/02 00:43:08;;;;;;;3.70;2.80;;;;;;;8.90;52.16;100014.21;109206;1276;23366;-64
2022/05/02 00:45:39;;;;;;;5.10;2.70;;;;;;;8.91;52.58;100014.95;109184;1276;23601;-64
2022/05/02 00:48:11;;;;;;;8.30;2.90;;;;;;;8.92;52.39;100014.03;109033;1277;139070;-64
2022/05/02 00:50:43;;;;;;;6.30;2.30;;;;;;;8.92;51.93;100012.73;109130;1277;22424;-64
2022/05/02 00:53:18;;;;;;;4.40;3.10;;;;;;;8.93;51.87;100014.05;109029;1276;137205;-64
2022/05/02 00:55:47;;;;;;;5.80;2.80;;;;;;;8.93;51.66;100013.46;109153;1277;22410;-64
2022/05/02 00:58:16;;;;;;;6.80;2.90;;;;;;;8.94;51.79;100010.23;109111;1276;138252;-64
2022/05/02 01:00:44;;;;;;;5.40;2.60;;;;;;;8.95;51.77;100007.95;109245;1276;22458;-64
2022/05/02 01:03:12;;;;;;;5.20;2.40;;;;;;;8.94;51.97;100011.43;109244;1276;22542;-64
2022/05/02 01:08:31;;;;;;;5.60;2.60;;;;;;;8.91;51.90;100004.80;109263;1276;23759;-64
2022/05/02 01:10:59;;;;;;;3.00;1.90;;;;;;;8.89;51.62;100004.50;109080;1276;138860;-64
2022/05/02 01:13:43;;;;;;;3.00;2.20;;;;;;;8.84;51.17;99994.92;109200;1276;23494;-64
2022/05/02 01:16:12;;;;;;;6.20;2.10;;;;;;;8.87;51.16;100002.23;109133;1276;138905;-64
2022/05/02 01:18:44;;;;;;;3.40;2.30;;;;;;;8.87;51.32;100002.34;109187;1277;23393;-64
2022/05/02 01:21:17;;;;;;;3.20;2.50;;;;;;;8.88;51.28;100002.51;109050;1277;22436;-63
2022/05/02 01:23:47;;;;;;;6.10;2.50;;;;;;;8.86;51.78;100003.98;109114;1276;138428;-64
2022/05/02 01:26:16;;;;;;;4.40;2.70;;;;;;;8.84;51.76;100004.81;109233;1274;22433;-64
2022/05/02 01:28:45;;;;;;;3.60;2.60;;;;;;;8.82;51.88;100001.13;109124;1277;138103;-64
2022/05/02 01:31:13;;;;;;;3.40;2.20;;;;;;;8.80;52.40;99999.66;109210;1275;22452;-64
2022/05/02 01:33:41;;;;;;;3.00;2.30;;;;;;;8.75;52.92;99999.55;109143;1276;22525;-63
2022/05/02 01:36:09;;;;;;;5.50;2.50;;;;;;;8.71;53.36;100000.36;109113;1276;136987;-63
2022/05/02 01:38:37;;;;;;;3.40;2.30;;;;;;;8.65;53.19;99992.85;109227;1276;22471;-63
2022/05/02 01:41:06;;;;;;;5.70;2.10;;;;;;;8.61;53.06;99994.59;109112;1277;137477;-63
2022/05/02 01:43:34;;;;;;;3.30;2.40;;;;;;;8.58;52.89;99993.64;109263;1277;23604;-63
2022/05/02 01:46:03;;;;;;;5.40;2.90;;;;;;;8.57;52.41;99995.07;109108;1277;138026;-63
2022/05/02 01:48:32;;;;;;;4.80;2.50;;;;;;;8.57;52.12;99995.56;109144;1277;22559;-63
2022/05/02 01:51:00;;;;;;;4.30;2.70;;;;;;;8.59;51.94;99993.38;109242;1276;22688;-64
2022/05/02 01:53:29;;;;;;;4.50;2.60;;;;;;;8.61;51.66;99992.67;109093;1277;137160;-64
2022/05/02 01:55:57;;;;;;;4.00;2.50;;;;;;;8.63;51.44;99994.48;109207;1275;22477;-64
2022/05/02 01:58:25;;;;;;;4.20;2.10;;;;;;;8.66;51.42;99995.30;109131;1277;138046;-64
2022/05/02 02:00:53;;;;;;;3.30;2.00;;;;;;;8.69;51.33;99995.48;109225;1277;22234;-64
2022/05/02 02:03:21;;;;;;;6.20;2.30;;;;;;;8.73;51.10;99993.59;109230;1276;22374;-64
2022/05/02 02:05:50;;;;;;;5.70;2.40;;;;;;;8.76;51.35;99991.92;109001;1277;137450;-64
2022/05/02 02:08:21;;;;;;;3.80;2.60;;;;;;;8.78;51.83;99994.36;109021;1277;22506;-64
2022/05/02 02:10:53;;;;;;;5.30;2.60;;;;;;;8.79;52.13;99996.06;109057;1276;138248;-64
2022/05/02 02:13:22;;;;;;;4.40;2.60;;;;;;;8.77;52.11;99990.86;109200;1277;23802;-64
2022/05/02 02:15:50;;;;;;;3.60;2.40;;;;;;;8.78;52.99;99995.58;109242;1276;22253;-64
2022/05/02 02:18:18;;;;;;;4.10;2.80;;;;;;;8.76;53.29;99991.80;109099;1276;136763;-64
2022/05/02 02:20:47;;;;;;;2.60;1.90;;;;;;;8.71;53.37;99993.84;109214;1277;23202;-64
2022/05/02 02:23:15;;;;;;;3.50;2.70;;;;;;;8.67;53.52;99995.36;108955;1277;138145;-64
2022/05/02 02:25:43;;;;;;;5.10;2.20;;;;;;;8.64;53.78;99995.52;109200;1277;22449;-64
2022/05/02 02:28:12;;;;;;;6.20;2.90;;;;;;;8.59;54.12;99998.39;109018;1277;138860;-64
2022/05/02 02:30:42;;;;;;;4.20;2.30;;;;;;;8.53;54.63;99997.84;109122;1277;22528;-64
2022/05/02 02:33:09;;;;;;;3.80;2.50;;;;;;;8.45;54.84;99994.89;109223;1276;22421;-64
2022/05/02 02:35:37;;;;;;;5.40;2.60;;;;;;;8.38;54.99;99993.52;109116;1277;136900;-64
2022/05/02 02:38:05;;;;;;;4.70;2.70;;;;;;;8.31;55.14;99993.41;109208;1277;22603;-64
2022/05/02 02:40:33;;;;;;;4.20;2.40;;;;;;;8.23;55.51;99995.64;109166;1276;137400;-64
2022/05/02 02:43:01;;;;;;;3.50;2.70;;;;;;;8.16;55.58;99991.27;109184;1277;22457;-64
2022/05/02 02:45:29;;;;;;;3.90;2.30;;;;;;;8.10;56.06;99992.23;108622;1276;25054;-63
2022/05/02 02:47:57;;;;;;;3.50;2.50;;;;;;;8.03;56.49;99992.76;109057;1276;137320;-64
2022/05/02 02:50:26;;;;;;;2.70;2.40;;;;;;;7.97;56.53;99996.21;109151;1277;22545;-64
2022/05/02 02:52:54;;;;;;;7.60;2.30;;;;;;;7.91;56.62;99995.52;109137;1276;138461;-64
2022/05/02 02:55:22;;;;;;;4.30;2.60;;;;;;;7.88;56.69;99996.35;109204;1276;22461;-64
2022/05/02 02:57:50;;;;;;;4.80;2.70;;;;;;;7.82;57.18;99995.27;109252;1276;22449;-64
2022/05/02 03:00:18;;;;;;;5.10;2.40;;;;;;;7.74;57.33;99999.56;109109;1276;137493;-64
2022/05/02 03:02:47;;;;;;;3.20;2.70;;;;;;;7.65;57.45;99999.88;109196;1275;22441;-64
2022/05/02 03:08:01;;;;;;;5.40;2.80;;;;;;;7.52;58.27;100001.29;109061;1276;22466;-64
2022/05/02 03:10:29;;;;;;;3.80;2.90;;;;;;;7.50;57.98;100001.63;109047;1276;137497;-64
2022/05/02 03:12:57;;;;;;;7.40;2.70;;;;;;;7.47;58.25;100003.65;109214;1276;23237;-64
2022/05/02 03:15:25;;;;;;;4.20;2.80;;;;;;;7.43;58.81;100005.48;108754;1275;25339;-63
2022/05/02 03:17:53;;;;;;;4.60;2.40;;;;;;;7.37;59.02;100004.20;104690;1277;137710;-63
2022/05/02 03:20:21;;;;;;;7.10;2.60;;;;;;;7.33;59.03;100003.77;109172;1276;23218;-64
2022/05/02 03:22:49;;;;;;;5.00;3.30;;;;;;;7.30;59.39;100004.96;109065;1277;137183;-64
2022/05/02 03:25:17;;;;;;;4.00;2.80;;;;;;;7.26;59.52;100006.36;109239;1276;22461;-64
2022/05/02 03:27:46;;;;;;;4.70;2.90;;;;;;;7.22;59.84;100005.70;109244;1276;23640;-64
2022/05/02 03:30:14;;;;;;;4.80;2.80;;;;;;;7.20;60.03;100007.23;109150;1276;139309;-64
2022/05/02 03:32:43;;;;;;;5.10;2.40;;;;;;;7.17;60.32;100008.52;109199;1276;23253;-64
2022/05/02 03:35:10;;;;;;;4.00;2.80;;;;;;;7.14;60.18;100009.67;109040;1277;137350;-64
2022/05/02 03:37:41;;;;;;;10.10;2.90;;;;;;;7.15;60.56;100014.65;109207;1276;23536;-64
2022/05/02 03:40:09;;;;;;;6.30;2.90;;;;;;;7.15;60.88;100012.74;109098;1276;137466;-64
2022/05/02 03:42:37;;;;;;;9.00;2.60;;;;;;;7.14;61.12;100017.80;109249;1276;22459;-64
2022/05/02 03:45:08;;;;;;;6.20;3.10;;;;;;;7.14;60.92;100017.88;109210;1276;22394;-64
2022/05/02 03:47:36;;;;;;;9.60;3.60;;;;;;;7.16;61.02;100015.83;109105;1276;137758;-64
2022/05/02 03:50:05;;;;;;;6.70;2.80;;;;;;;7.19;61.63;100019.17;109213;1276;22427;-64
2022/05/02 03:52:33;;;;;;;6.20;3.10;;;;;;;7.25;61.68;100015.55;109144;1276;137567;-64
2022/05/02 03:55:01;;;;;;;8.00;3.00;;;;;;;7.33;61.24;100018.94;109213;1276;24788;-64
2022/05/02 03:57:30;;;;;;;8.10;3.30;;;;;;;7.43;60.78;100016.65;109246;1276;22410;-64
2022/05/02 03:59:58;;;;;;;14.40;3.40;;;;;;;7.53;61.06;100015.99;109145;1276;138069;-64
2022/05/02 04:02:26;;;;;;;6.00;3.50;;;;;;;7.63;61.51;100016.84;109241;1276;22245;-64
2022/05/02 04:04:54;;;;;;;5.10;3.20;;;;;;;7.74;61.57;100014.96;109132;1276;137120;-64
2022/05/02 04:07:22;;;;;;;8.10;3.40;;;;;;;7.88;61.84;100019.08;109248;1276;23218;-64
2022/05/02 04:12:42;;;;;;;7.10;3.30;;;;;;;8.18;61.25;100017.73;101458;1312;564028;-64
2022/05/02 04:15:11;;;;;;;6.80;3.70;;;;;;;8.31;60.39;100018.68;103967;1287;22603;-64
2022/05/02 04:17:39;;;;;;;8.00;3.20;;;;;;;8.45;59.87;100020.95;103718;1287;137386;-65
2022/05/02 04:20:08;;;;;;;7.10;3.50;;;;;;;8.57;58.85;100016.91;103750;1289;23971;-63
2022/05/02 04:22:37;;;;;;;7.10;3.70;;;;;;;8.69;57.94;100020.48;107969;1287;136580;-64
2022/05/02 04:25:05;;;;;;;9.10;3.50;;;;;;;8.82;57.43;100021.73;108143;1287;22372;-64
2022/05/02 04:27:34;;;;;;;7.40;3.60;;;;;;;8.95;56.70;100014.59;108239;1284;23100;-64
2022/05/02 04:30:03;;;;;;;6.10;3.50;;;;;;;9.08;56.49;100019.21;108278;1285;138535;-64
2022/05/02 04:32:31;;;;;;;6.10;2.80;;;;;;;9.23;55.99;100018.36;108412;1284;22507;-64
2022/05/02 04:34:59;;;;;;;6.00;3.40;;;;;;;9.39;55.62;100018.39;108290;1285;138772;-64
2022/05/02 04:37:27;;;;;;;8.70;3.50;;;;;;;9.55;55.18;100013.09;108406;1284;23597;-64
2022/05/02 04:39:55;;;;;;;5.10;3.10;;;;;;;9.74;54.94;100017.19;108693;1282;22407;-64
2022/05/02 04:42:23;;;;;;;5.30;3.00;;;;;;;9.95;54.19;100017.89;108629;1280;136822;-64
2022/05/02 04:44:51;;;;;;;6.00;3.10;;;;;;;10.21;53.70;100016.17;108675;1282;22447;-64
2022/05/02 04:47:19;;;;;;;7.20;3.30;;;;;;;10.50;52.76;100014.39;104745;1282;137761;-64
2022/05/02 04:49:52;;;;;;;5.40;2.80;;;;;;;10.86;51.98;100012.93;104515;1282;22590;-64
2022/05/02 04:52:20;;;;;;;5.10;2.80;;;;;;;11.23;51.25;100007.95;104359;1282;137468;-64
2022/05/02 04:54:48;;;;;;;5.40;2.80;;;;;;;11.62;50.28;100010.28;104940;1274;22730;-64
2022/05/02 04:57:17;;;;;;;4.40;2.90;;;;;;;12.02;48.75;100005.47;109346;1274;23690;-64
2022/05/02 04:59:45;;;;;;;5.40;2.50;;;;;;;12.41;48.11;100004.20;109320;1273;137387;-64
2022/05/02 05:02:13;;;;;;;8.20;2.70;;;;;;;12.81;47.47;99996.46;109438;1272;22498;-64
2022/05/02 05:04:42;;;;;;;4.20;2.90;;;;;;;13.21;46.24;99997.83;108988;1275;138563;-64
2022/05/02 05:07:10;;;;;;;5.90;2.60;;;;;;;13.59;45.33;99996.64;109409;1274;22614;-64
2022/05/02 05:09:38;;;;;;;9.60;2.90;;;;;;;13.94;44.78;99999.74;109387;1274;22617;-64
2022/05/02 05:12:21;;;;;;;7.90;2.50;;;;;;;14.28;44.27;99997.89;109240;1274;137031;-65
2022/05/02 05:18:27;;;;;;;3.50;2.20;;;;;;;15.10;42.02;99992.70;109304;1274;136788;-64
2022/05/02 05:21:10;;;;;;;5.80;2.10;;;;;;;15.46;41.48;99991.04;109388;1271;22439;-65
2022/05/02 05:24:32;;;;;;;5.30;2.70;;;;;;;15.80;40.65;99988.48;109251;1274;136932;-64
2022/05/02 05:27:15;;;;;;;5.10;2.20;;;;;;;16.13;39.78;99990.02;109378;1274;22476;-64
2022/05/02 05:29:53;;;;;;;3.20;2.00;;;;;;;16.38;39.35;99987.91;109281;1274;137084;-64
2022/05/02 05:32:43;;;;;;;3.40;2.10;;;;;;;16.67;38.94;99988.54;109246;1273;22449;-64
2022/05/02 05:35:11;;;;;;;5.60;2.00;;;;;;;16.96;38.50;99986.45;109248;1274;138081;-64
2022/05/02 05:37:48;;;;;;;11.40;3.30;;;;;;;17.21;37.89;99988.59;109224;1274;22409;-64
2022/05/02 05:40:24;;;;;;;8.30;2.70;;;;;;;17.44;37.44;99986.42;109359;1274;22429;-64
2022/05/02 05:42:52;;;;;;;6.70;3.10;;;;;;;17.63;36.66;99986.06;109256;1274;137252;-64
2022/05/02 05:45:32;;;;;;;5.80;3.10;;;;;;;17.73;36.41;99983.15;109323;1274;23018;-64
2022/05/02 05:48:11;;;;;;;7.30;3.20;;;;;;;17.80;35.90;99983.83;109116;1274;137185;-65
2022/05/02 05:50:48;;;;;;;15.60;3.00;;;;;;;17.85;36.05;99978.98;109266;1273;22423;-65
2022/05/02 05:53:54;;;;;;;5.20;2.70;;;;;;;17.86;35.94;99976.38;109243;1274;138197;-65
2022/05/02 05:56:32;;;;;;;5.70;2.50;;;;;;;17.81;35.80;99977.04;108924;1278;22546;-65
2022/05/02 05:59:20;;;;;;;3.30;1.80;;;;;;;17.70;35.66;99984.29;108713;1277;138331;-65
2022/05/02 06:01:51;;;;;;;3.70;2.30;;;;;;;17.55;35.68;99981.23;108365;1283;23475;-65
2022/05/02 06:04:19;;;;;;;4.50;2.20;;;;;;;17.37;35.78;99978.17;108343;1285;23155;-65
2022/05/02 06:06:47;;;;;;;3.70;2.00;;;;;;;17.21;35.92;99980.60;108306;1284;137738;-65
2022/05/02 06:09:16;;;;;;;3.90;2.50;;;;;;;17.12;35.88;99980.91;108401;1283;22460;-65
2022/05/02 06:11:45;;;;;;;4.30;2.30;;;;;;;17.00;36.48;99984.05;108285;1284;138044;-65
2022/05/02 06:14:14;;;;;;;3.70;2.20;;;;;;;16.91;36.94;99983.46;108407;1283;22474;-65
2022/05/02 06:19:30;;;;;;;4.50;2.60;;;;;;;16.77;37.21;99982.48;108380;1284;23278;-65
2022/05/02 06:21:57;;;;;;;4.80;2.80;;;;;;;16.71;37.18;99983.86;108355;1284;22775;-65
2022/05/02 06:24:27;;;;;;;5.50;2.70;;;;;;;16.65;37.46;99982.68;108325;1283;138926;-65
2022/05/02 06:26:55;;;;;;;7.70;2.40;;;;;;;16.60;37.65;99982.08;108203;1284;22505;-66
2022/05/02 06:29:24;;;;;;;4.40;2.30;;;;;;;16.57;38.12;99986.36;108255;1284;137219;-66
2022/05/02 06:31:54;;;;;;;3.60;2.00;;;;;;;16.52;38.02;99982.74;108470;1281;22283;-66
2022/05/02 06:34:28;;;;;;;2.80;1.80;;;;;;;16.49;37.84;99985.23;108743;1280;23078;-65
2022/05/02 06:37:16;;;;;;;5.20;2.00;;;;;;;16.48;37.82;99984.20;108523;1279;138031;-65
2022/05/02 06:39:52;;;;;;;2.70;2.00;;;;;;;16.47;37.66;99983.65;109131;1274;23102;-65
2022/05/02 06:42:40;;;;;;;4.10;1.60;;;;;;;16.45;37.74;99980.37;109142;1274;138273;-65
2022/05/02 06:45:10;;;;;;;2.30;1.70;;;;;;;16.42;37.67;99981.79;109231;1274;22447;-65
2022/05/02 06:48:18;;;;;;;3.90;1.60;;;;;;;16.42;37.63;99980.08;109227;1274;137218;-64
2022/05/02 06:50:47;;;;;;;9.10;2.30;;;;;;;16.41;37.34;99978.71;109419;1274;23360;-65
2022/05/02 06:53:35;;;;;;;9.80;1.90;;;;;;;16.39;36.83;99972.49;109134;1274;137139;-65
2022/05/02 06:56:09;;;;;;;5.90;1.70;;;;;;;16.36;36.48;99971.41;109371;1274;22537;-64
2022/05/02 06:58:48;;;;;;;5.00;1.50;;;;;;;16.34;36.89;99973.02;109252;1274;137594;-64
2022/05/02 07:01:56;;;;;;;3.70;1.70;;;;;;;16.34;36.55;99972.64;109367;1274;22441;-65
2022/05/02 07:04:49;;;;;;;20.80;3.00;;;;;;;16.31;37.07;99970.78;109134;1274;22478;-65
2022/05/02 07:07:39;;;;;;;2.30;1.50;;;;;;;16.27;37.03;99971.05;109232;1274;137536;-65
2022/05/02 07:10:12;;;;;;;1.50;1.40;;;;;;;16.24;36.48;99966.48;109281;1274;23205;-65
2022/05/02 07:12:53;;;;;;;8.50;1.90;;;;;;;16.26;36.65;99969.63;109133;1274;138258;-65
2022/05/02 07:15:36;;;;;;;4.60;1.60;;;;;;;16.29;36.65;99969.48;109110;1274;22407;-65
2022/05/02 07:18:10;;;;;;;3.40;1.80;;;;;;;16.31;36.96;99968.09;108981;1275;138631;-65
2022/05/02 07:20:39;;;;;;;3.10;1.60;;;;;;;16.35;37.13;99966.90;109250;1273;22431;-65
2022/05/02 07:23:19;;;;;;;3.30;1.70;;;;;;;16.36;36.98;99967.67;109238;1274;137481;-64
2022/05/02 07:25:50;;;;;;;4.60;1.30;;;;;;;16.36;36.71;99961.84;109320;1274;22448;-64
2022/05/02 07:28:45;;;;;;;3.50;1.40;;;;;;;16.37;36.70;99964.75;109382;1274;23486;-64
2022/05/02 07:31:23;;;;;;;2.50;1.50;;;;;;;16.38;36.75;99963.77;109288;1274;137230;-64
2022/05/02 07:33:52;;;;;;;4.80;1.60;;;;;;;16.40;36.93;99963.59;109402;1274;23729;-64
2022/05/02 07:36:22;;;;;;;4.30;1.30;;;;;;;16.42;36.93;99962.36;109177;1276;138145;-64
2022/05/02 07:39:02;;;;;;;2.80;1.40;;;;;;;16.46;36.79;99958.42;109285;1275;22544;-64
2022/05/02 07:41:31;;;;;;;2.10;1.60;;;;;;;16.49;36.59;99959.44;109153;1274;137344;-64
2022/05/02 07:44:03;;;;;;;4.00;2.30;;;;;;;16.51;36.39;99958.10;109329;1274;23054;-64
2022/05/02 07:46:45;;;;;;;3.00;1.70;;;;;;;16.55;36.69;99960.79;106849;1274;22969;-64
2022/05/02 07:49:14;;;;;;;1.90;1.70;;;;;;;16.61;36.51;99961.99;104942;1274;137052;-64
2022/05/02 07:51:47;;;;;;;2.40;1.30;;;;;;;16.66;35.88;99954.23;105005;1274;22622;-64
2022/05/02 07:54:16;;;;;;;1.70;1.50;;;;;;;16.65;35.63;99947.73;109257;1274;137428;-64
2022/05/02 07:56:49;;;;;;;3.70;1.60;;;;;;;16.66;36.11;99955.48;109221;1274;23134;-64
2022/05/02 07:59:24;;;;;;;3.00;1.70;;;;;;;16.65;36.63;99952.20;109239;1274;137229;-64
2022/05/02 08:01:53;;;;;;;3.00;1.80;;;;;;;16.70;36.81;99951.29;109264;1274;23050;-64
2022/05/02 08:04:21;;;;;;;3.70;1.70;;;;;;;16.75;36.96;99950.89;109357;1274;23478;-65
2022/05/02 08:07:27;;;;;;;2.50;1.60;;;;;;;16.80;36.92;99950.20;109157;1274;138192;-65
2022/05/02 08:09:57;;;;;;;2.00;1.40;;;;;;;16.86;35.23;99946.86;109347;1274;23329;-64
2022/05/02 08:12:29;;;;;;;2.70;1.70;;;;;;;16.87;34.86;99944.70;109127;1274;137237;-64
2022/05/02 08:15:19;;;;;;;2.90;1.60;;;;;;;16.88;36.06;99946.39;109357;1274;23130;-65
2022/05/02 08:18:24;;;;;;;3.00;1.50;;;;;;;16.91;36.20;99945.31;109218;1274;137944;-64
2022/05/02 08:20:56;;;;;;;2.90;1.70;;;;;;;16.94;36.09;99942.74;109373;1274;22480;-65
2022/05/02 08:27:15;;;;;;;1.70;1.50;;;;;;;17.08;36.23;99940.75;109402;1274;22393;-66
2022/05/02 08:30:02;;;;;;;6.60;1.90;;;;;;;17.14;35.72;99936.19;109147;1274;137104;-65
2022/05/02 08:33:04;;;;;;;8.00;1.60;;;;;;;17.18;35.99;99935.02;109372;1274;22481;-66
2022/05/02 08:35:57;;;;;;;3.50;2.00;;;;;;;17.21;34.80;99928.94;109238;1274;138591;-66
2022/05/02 08:38:46;;;;;;;28.90;2.70;;;;;;;17.20;34.70;99924.81;109363;1274;22430;-65
2022/05/02 08:41:39;;;;;;;2.50;1.70;;;;;;;17.18;34.30;99924.39;109247;1274;137724;-65
2022/05/02 08:44:07;;;;;;;2.20;1.50;;;;;;;17.14;34.52;99923.13;109022;1278;22420;-65
2022/05/02 08:46:54;;;;;;;2.10;1.50;;;;;;;17.10;35.31;99918.27;109294;1274;22453;-66
2022/05/02 08:49:59;;;;;;;6.10;2.00;;;;;;;17.10;34.68;99914.13;109213;1274;137921;-65
2022/05/02 08:52:47;;;;;;;4.40;1.70;;;;;;;17.09;33.83;99910.77;109359;1273;22476;-65
2022/05/02 08:55:27;;;;;;;3.30;1.90;;;;;;;17.07;34.04;99910.35;109081;1274;137283;-65
2022/05/02 08:58:08;;;;;;;4.80;2.00;;;;;;;17.03;34.27;99905.16;109381;1274;23194;-65
2022/05/02 09:00:54;;;;;;;5.40;2.40;;;;;;;16.99;34.39;99902.70;109282;1274;137538;-65
2022/05/02 09:03:43;;;;;;;2.50;1.80;;;;;;;16.97;34.35;99899.90;109146;1274;23152;-65
2022/05/02 09:06:49;;;;;;;3.10;1.90;;;;;;;16.95;34.25;99904.54;109217;1274;139702;-65
2022/05/02 09:09:40;;;;;;;7.70;2.20;;;;;;;16.90;34.77;99900.99;109334;1274;23973;-65
2022/05/02 09:12:25;;;;;;;1.50;1.40;;;;;;;16.90;34.93;99893.02;109248;1274;138230;-64
2022/05/02 09:15:11;;;;;;;3.30;1.60;;;;;;;16.94;35.44;99892.16;109332;1274;22427;-64
2022/05/02 09:18:10;;;;;;;5.50;2.00;;;;;;;17.04;35.88;99886.33;109183;1274;138832;-64
2022/05/02 09:21:05;;;;;;;6.70;1.90;;;;;;;17.13;35.54;99885.57;109361;1274;22417;-64
2022/05/02 09:24:15;;;;;;;4.60;1.90;;;;;;;17.23;34.41;99874.11;109237;1274;137778;-64
2022/05/02 09:27:12;;;;;;;9.40;1.80;;;;;;;17.33;35.14;99876.64;108979;1278;22443;-64
2022/05/02 09:29:49;;;;;;;3.40;2.00;;;;;;;17.42;35.46;99879.29;108837;1277;137521;-64
2022/05/02 09:32:26;;;;;;;2.40;1.80;;;;;;;17.51;34.94;99873.16;108781;1279;22519;-64
2022/05/02 09:34:56;;;;;;;;;;;;;;;17.57;34.17;99872.38;108713;1279;22491;-65
2022/05/02 09:37:39;;;;;;;2.30;1.80;;;;;;;17.59;34.19;99870.03;108804;1278;124842;-64
2022/05/02 09:40:16;;;;;;;3.90;1.60;;;;;;;17.65;34.28;99863.86;108913;1278;22466;-64
2022/05/02 09:42:57;;;;;;;;;;;;;;;17.69;34.43;99858.23;108899;1277;137935;-64
2022/05/02 09:51:43;;;;;;;2.30;1.60;;;;;;;17.75;33.51;99850.88;108965;1279;23441;-64
2022/05/02 09:54:11;;;;;;;3.20;2.00;;;;;;;17.78;34.37;99852.48;108839;1279;139015;-64
2022/05/02 09:56:46;;;;;;;2.50;1.80;;;;;;;17.83;34.59;99843.54;108955;1279;22516;-64
2022/05/02 09:59:23;;;;;;;6.00;1.90;;;;;;;17.86;33.53;99848.64;108866;1279;137510;-64
2022/05/02 10:02:01;;;;;;;2.80;2.00;;;;;;;17.87;33.48;99845.53;108925;1277;22453;-64
2022/05/02 10:04:41;;;;;;;3.30;1.50;;;;;;;17.88;33.36;99843.92;109056;1274;22520;-65
2022/05/02 10:07:10;;;;;;;3.20;1.50;;;;;;;17.89;33.38;99844.28;109099;1274;137885;-64
2022/05/02 10:09:48;;;;;;;4.00;1.90;;;;;;;17.91;33.61;99838.02;109329;1274;22514;-64
2022/05/02 10:12:47;;;;;;;3.40;1.70;;;;;;;17.94;33.70;99833.23;109217;1274;138267;-64
2022/05/02 10:15:33;;;;;;;4.20;1.80;;;;;;;17.99;33.31;99827.65;108850;1280;23474;-65
2022/05/02 10:18:41;;;;;;;4.20;1.80;;;;;;;18.02;32.86;99823.81;108763;1279;138371;-65
2022/05/02 10:21:22;;;;;;;4.90;2.40;;;;;;;17.99;33.35;99823.62;108739;1279;22462;-65
2022/05/02 10:23:59;;;;;;;6.10;2.00;;;;;;;17.96;33.42;99823.16;108847;1279;138073;-65
2022/05/02 10:26:32;;;;;;;;;;;;;;;17.91;33.22;99819.92;108932;1280;23225;-65
2022/05/02 10:29:34;;;;;;;5.30;1.60;;;;;;;17.88;34.24;99818.63;108855;1280;124359;-64
2022/05/02 10:32:05;;;;;;;5.60;1.90;;;;;;;17.86;33.34;99814.62;108955;1280;23161;-65
2022/05/02 10:34:33;;;;;;;4.60;2.10;;;;;;;17.86;33.50;99807.80;108953;1279;22469;-66
2022/05/02 10:37:06;;;;;;;4.70;2.10;;;;;;;17.89;33.85;99810.16;108677;1280;137580;-65
2022/05/02 10:39:45;;;;;;;2.80;2.00;;;;;;;17.96;33.61;99806.84;108908;1280;23129;-64
2022/05/02 10:42:17;;;;;;;6.60;2.00;;;;;;;18.05;34.33;99803.67;108852;1280;137399;-64
2022/05/02 10:44:55;;;;;;;2.00;1.80;;;;;;;18.16;33.81;99800.08;108957;1279;23281;-64
2022/05/02 10:47:25;;;;;;;3.60;1.80;;;;;;;18.26;33.60;99799.63;108792;1279;137512;-64
2022/05/02 10:50:00;;;;;;;2.50;1.60;;;;;;;18.33;32.95;99798.55;108903;1280;22374;-64
2022/05/02 10:52:37;;;;;;;6.40;1.80;;;;;;;18.34;32.90;99792.58;109048;1274;23419;-64
2022/05/02 10:55:12;;;;;;;10.90;2.00;;;;;;;18.30;33.10;99791.01;109196;1274;139603;-65
2022/05/02 10:57:50;;;;;;;6.20;1.70;;;;;;;18.30;33.51;99789.41;109278;1274;23567;-64
2022/05/02 11:00:19;;;;;;;5.00;2.10;;;;;;;18.34;32.75;99777.08;109255;1274;137643;-64
2022/05/02 11:03:05;;;;;;;8.50;2.70;;;;;;;18.38;32.23;99770.29;109368;1274;22434;-65
2022/05/02 11:06:03;;;;;;;5.00;1.60;;;;;;;18.45;32.99;99775.45;109137;1275;138378;-65
2022/05/02 11:08:47;;;;;;;3.40;1.80;;;;;;;18.50;32.88;99771.48;109354;1274;22452;-64
2022/05/02 11:11:42;;;;;;;7.80;3.30;;;;;;;18.55;32.56;99765.50;109281;1274;138188;-64
2022/05/02 11:14:22;;;;;;;10.30;2.10;;;;;;;18.61;32.69;99766.08;109347;1274;22317;-64
2022/05/02 11:17:03;;;;;;;2.50;1.90;;;;;;;18.69;32.85;99756.75;109270;1274;22462;-64
2022/05/02 11:22:36;;;;;;;3.70;2.20;;;;;;;18.84;32.43;99761.39;109347;1274;22667;-64
2022/05/02 11:25:18;;;;;;;5.30;1.80;;;;;;;18.82;31.81;99749.72;109233;1274;137723;-64
2022/05/02 11:28:15;;;;;;;4.90;2.50;;;;;;;18.85;32.11;99753.14;109258;1274;22522;-64
2022/05/02 11:30:47;;;;;;;11.90;2.30;;;;;;;18.91;32.18;99746.05;109179;1274;138178;-64
2022/05/02 11:33:30;;;;;;;3.90;2.20;;;;;;;18.95;31.55;99746.13;109384;1274;23513;-65
2022/05/02 11:36:01;;;;;;;22.00;2.90;;;;;;;18.96;31.44;99742.48;109223;1274;137583;-65
2022/05/02 11:38:55;;;;;;;6.20;2.50;;;;;;;18.92;31.54;99741.16;109353;1274;22480;-65
2022/05/02 11:41:23;;;;;;;5.50;2.20;;;;;;;18.86;31.83;99743.73;109235;1274;137755;-65
2022/05/02 11:44:11;;;;;;;4.30;2.40;;;;;;;18.80;31.57;99739.98;109316;1274;23471;-65
2022/05/02 11:47:01;;;;;;;2.70;1.90;;;;;;;18.74;31.87;99731.02;109333;1274;22455;-64
2022/05/02 11:49:50;;;;;;;3.70;2.10;;;;;;;18.65;32.18;99727.63;109140;1274;137878;-65
2022/05/02 11:52:38;;;;;;;4.60;2.60;;;;;;;18.61;32.65;99723.45;109349;1274;22496;-64
2022/05/02 11:55:07;;;;;;;3.60;2.30;;;;;;;18.61;32.73;99719.49;109246;1274;138067;-65
2022/05/02 11:57:38;;;;;;;8.20;2.90;;;;;;;18.62;32.36;99718.36;109319;1274;22547;-64
2022/05/02 12:00:17;;;;;;;2.50;2.10;;;;;;;18.62;32.39;99713.88;109275;1274;138841;-64
2022/05/02 12:03:02;;;;;;;7.00;2.00;;;;;;;18.62;32.40;99710.52;109370;1274;23199;-64
2022/05/02 12:05:57;;;;;;;3.60;2.50;;;;;;;18.59;32.63;99703.14;109157;1276;137582;-65
2022/05/02 12:08:35;;;;;;;12.50;3.20;;;;;;;18.56;33.10;99693.57;109303;1274;22524;-64
2022/05/02 12:11:09;;;;;;;18.20;3.10;;;;;;;18.53;32.90;99699.37;109364;1274;23087;-64
2022/05/02 12:13:45;;;;;;;12.50;2.70;;;;;;;18.51;32.68;99696.31;109184;1274;138321;-64
2022/05/02 12:16:14;;;;;;;6.70;2.20;;;;;;;18.48;32.22;99696.48;109382;1274;23265;-64
2022/05/02 12:18:55;;;;;;;4.30;2.00;;;;;;;18.43;31.91;99694.48;109246;1274;137883;-64
2022/05/02 12:21:31;;;;;;;4.30;1.90;;;;;;;18.37;31.53;99689.63;109374;1274;22461;-65
2022/05/02 12:23:59;;;;;;;4.40;2.10;;;;;;;18.31;32.03;99688.64;109102;1274;138428;-65
2022/05/02 12:26:28;;;;;;;4.30;1.70;;;;;;;18.27;32.01;99691.27;109342;1274;22455;-65